createdAt,value
2023-04-18T00:01:09.805Z,1.85
2023-04-18T00:06:13.952Z,2.20
2023-04-18T00:11:19.320Z,3.00
2023-04-18T00:16:27.227Z,4.82
2023-04-18T00:21:32.101Z,4.65
2023-04-18T00:26:38.166Z,2.90
2023-04-18T00:31:42.106Z,3.28
2023-04-18T00:36:46.025Z,1.98
2023-04-18T00:41:51.377Z,1.85
2023-04-18T00:46:56.962Z,1.88
2023-04-18T00:52:02.084Z,2.38
2023-04-18T00:57:08.132Z,2.97
2023-04-18T01:02:12.466Z,3.55
2023-04-18T01:07:17.578Z,2.63
2023-04-18T01:12:22.906Z,3.00
2023-04-18T01:17:28.496Z,2.20
2023-04-18T01:22:35.083Z,1.40
2023-04-18T01:27:40.404Z,1.77
2023-04-18T01:32:46.138Z,2.88
2023-04-18T01:37:50.065Z,2.38
2023-04-18T01:42:55.438Z,2.97
2023-04-18T01:47:59.526Z,2.60
2023-04-18T01:53:05.085Z,1.80
2023-04-18T01:58:12.045Z,1.95
2023-04-18T02:03:16.366Z,1.60
2023-04-18T02:08:20.494Z,1.92
2023-04-18T02:13:25.992Z,1.88
2023-04-18T02:18:30.721Z,1.83
2023-04-18T02:23:34.701Z,1.55
2023-04-18T02:28:40.109Z,1.88
2023-04-18T02:33:44.669Z,3.17
2023-04-18T02:38:48.610Z,2.13
2023-04-18T02:43:53.968Z,2.30
2023-04-18T02:48:57.975Z,1.52
2023-04-18T02:54:02.344Z,2.53
2023-04-18T02:59:17.713Z,3.45
2023-04-18T03:04:40.501Z,5.00
2023-04-18T03:09:46.479Z,5.45
2023-04-18T03:14:57.422Z,6.57
2023-04-18T03:20:01.592Z,6.82
2023-04-18T03:25:08.220Z,4.53
2023-04-18T03:30:24.452Z,5.97
2023-04-18T03:35:35.191Z,4.95
2023-04-18T03:40:39.206Z,4.43
2023-04-18T03:45:53.091Z,3.65
2023-04-18T03:50:58.499Z,2.92
2023-04-18T03:56:02.702Z,2.38
2023-04-18T04:01:23.837Z,2.67
2023-04-18T04:06:30.258Z,3.10
2023-04-18T04:11:34.377Z,3.35
2023-04-18T04:16:42.457Z,4.63
2023-04-18T04:21:48.972Z,3.03
2023-04-18T04:26:54.740Z,4.20
2023-04-18T04:32:04.053Z,3.70
2023-04-18T04:37:14.112Z,3.72
2023-04-18T04:42:30.064Z,2.88
2023-04-18T04:47:44.724Z,4.97
2023-04-18T04:52:52.304Z,4.35
2023-04-18T04:57:57.622Z,4.30
2023-04-18T05:03:37.063Z,4.18
2023-04-18T05:08:42.724Z,2.85
2023-04-18T05:13:46.685Z,2.67
2023-04-18T05:18:52.022Z,3.28
2023-04-18T05:23:56.320Z,5.07
2023-04-18T05:29:01.913Z,14.57
2023-04-18T05:34:07.374Z,5.68
2023-04-18T05:39:12.243Z,4.78
2023-04-18T05:44:18.365Z,3.58
2023-04-18T05:49:24.240Z,4.20
2023-04-18T05:54:28.189Z,3.10
2023-04-18T05:59:32.116Z,2.85
2023-04-18T06:04:37.645Z,3.17
2023-04-18T06:09:41.786Z,2.17
2023-04-18T06:14:45.837Z,2.45
2023-04-18T06:19:51.295Z,4.68
2023-04-18T06:24:57.394Z,1.83
2023-04-18T06:30:01.416Z,2.53
2023-04-18T06:35:07.911Z,2.78
2023-04-18T06:40:12.801Z,1.90
2023-04-18T06:45:16.860Z,2.78
2023-04-18T06:50:22.326Z,3.35
2023-04-18T06:55:26.571Z,2.17
2023-04-18T07:00:30.790Z,5.25
2023-04-18T07:05:36.542Z,1.70
2023-04-18T07:10:41.205Z,1.92
2023-04-18T07:15:48.436Z,3.33
2023-04-18T07:20:53.746Z,2.17
2023-04-18T07:26:00.245Z,1.52
2023-04-18T07:36:34.496Z,1.63
2023-04-18T07:41:38.505Z,4.30
2023-04-18T07:46:42.567Z,2.83
2023-04-18T07:51:47.945Z,2.53
2023-04-18T07:56:51.845Z,1.92
2023-04-18T08:01:55.850Z,1.90
2023-04-18T08:07:01.169Z,1.33
2023-04-18T08:12:05.517Z,1.60
2023-04-18T08:17:09.414Z,1.52
2023-04-18T08:22:14.714Z,2.05
2023-04-18T08:27:18.634Z,1.77
2023-04-18T08:32:22.578Z,1.40
2023-04-18T08:37:28.601Z,1.90
2023-04-18T08:42:33.278Z,1.48
2023-04-18T08:47:37.381Z,2.58
2023-04-18T08:52:47.634Z,1.70
2023-04-18T08:57:54.210Z,1.75
2023-04-18T09:02:59.587Z,1.63
2023-04-18T09:08:24.551Z,0.63
2023-04-18T09:13:41.593Z,0.22
2023-04-18T09:19:12.280Z,0.10
2023-04-18T09:24:24.409Z,0.10
2023-04-18T09:29:48.671Z,0.08
2023-04-18T09:34:54.523Z,0.00
2023-04-18T09:40:01.652Z,0.20
2023-04-18T09:45:07.904Z,0.30
2023-04-18T09:50:12.804Z,0.47
2023-04-18T09:55:20.129Z,0.32
2023-04-18T10:05:37.758Z,0.20
2023-04-18T10:10:43.158Z,0.10
2023-04-18T10:15:47.368Z,0.10
2023-04-18T10:20:51.867Z,0.03
2023-04-18T10:25:58.079Z,0.20
2023-04-18T10:31:05.918Z,0.40
2023-04-18T10:36:19.887Z,0.70
2023-04-18T10:41:27.400Z,0.20
2023-04-18T10:46:32.812Z,0.30
2023-04-18T10:51:36.942Z,0.77
2023-04-18T10:56:53.505Z,0.35
2023-04-18T11:02:00.789Z,0.90
2023-04-18T11:07:04.792Z,3.88
2023-04-18T11:12:12.280Z,4.05
2023-04-18T11:17:20.342Z,2.25
2023-04-18T11:22:24.352Z,1.73
2023-04-18T11:27:31.298Z,0.50
2023-04-18T11:32:35.793Z,0.17
2023-04-18T11:37:41.812Z,0.32
2023-04-18T11:42:48.720Z,0.30
2023-04-18T11:47:57.175Z,0.65
2023-04-18T11:58:07.045Z,3.13
2023-04-18T12:03:18.778Z,4.22
2023-04-18T12:08:22.891Z,3.17
2023-04-18T12:13:33.345Z,1.58
2023-04-18T12:18:37.329Z,0.30
2023-04-18T12:23:42.965Z,0.57
2023-04-18T12:28:53.931Z,0.52
2023-04-18T12:34:00.138Z,0.40
2023-04-18T12:39:04.204Z,0.20
2023-04-18T12:44:09.554Z,0.30
2023-04-18T12:49:13.434Z,0.55
2023-04-18T12:54:17.411Z,1.13
2023-04-18T12:59:22.664Z,0.40
2023-04-18T13:04:27.336Z,0.30
2023-04-18T13:09:31.679Z,0.68
2023-04-18T13:14:37.006Z,0.30
2023-04-18T13:19:41.092Z,0.43
2023-04-18T13:24:44.957Z,0.32
2023-04-18T13:29:50.300Z,0.32
2023-04-18T13:34:56.162Z,0.20
2023-04-18T13:40:00.096Z,1.65
2023-04-18T13:45:07.497Z,0.63
2023-04-18T13:50:12.070Z,0.15
2023-04-18T13:55:16.556Z,0.20
2023-04-18T14:00:22.341Z,0.15
2023-04-18T14:05:26.370Z,0.65
2023-04-18T14:10:30.382Z,0.17
2023-04-18T14:15:36.226Z,0.00
2023-04-18T14:20:40.179Z,0.00
2023-04-18T14:25:44.656Z,0.10
2023-04-18T14:30:50.027Z,0.25
2023-04-18T14:35:54.044Z,0.40
2023-04-18T14:40:58.597Z,1.05
2023-04-18T14:46:03.936Z,0.38
2023-04-18T14:51:08.039Z,1.40
2023-04-18T14:56:12.087Z,0.10
2023-04-18T15:01:18.611Z,0.60
2023-04-18T15:06:23.220Z,0.60
2023-04-18T15:11:27.488Z,0.95
2023-04-18T15:16:38.265Z,1.05
2023-04-18T15:21:42.341Z,2.50
2023-04-18T15:26:48.061Z,2.28
2023-04-18T15:31:53.504Z,1.48
2023-04-18T15:36:58.997Z,2.40
2023-04-18T15:42:03.001Z,0.68
2023-04-18T15:47:10.818Z,0.98
2023-04-18T15:52:16.942Z,0.40
2023-04-18T15:57:24.147Z,0.75
2023-04-18T16:02:29.787Z,1.05
2023-04-18T16:07:34.017Z,0.55
2023-04-18T16:12:40.250Z,2.80
2023-04-18T16:17:45.798Z,0.40
2023-04-18T16:22:53.090Z,0.10
2023-04-18T16:27:57.159Z,0.50
2023-04-18T16:33:02.651Z,0.22
2023-04-18T16:38:08.051Z,0.30
2023-04-18T16:43:12.191Z,1.02
2023-04-18T16:48:20.097Z,0.25
2023-04-18T16:53:25.035Z,0.17
2023-04-18T17:03:59.354Z,0.35
2023-04-18T17:09:06.331Z,0.03
2023-04-18T17:14:10.597Z,0.47
2023-04-18T17:19:16.208Z,0.03
2023-04-18T17:24:22.516Z,0.10
2023-04-18T17:29:27.089Z,0.15
2023-04-18T17:34:32.465Z,0.10
2023-04-18T17:39:36.494Z,0.30
2023-04-18T17:44:41.410Z,1.13
2023-04-18T17:49:49.108Z,0.40
2023-04-18T17:54:53.280Z,0.77
2023-04-18T17:59:57.599Z,0.10
2023-04-18T18:05:03.042Z,0.68
2023-04-18T18:10:08.644Z,0.47
2023-04-18T18:20:44.019Z,0.22
2023-04-18T18:30:51.728Z,0.20
2023-04-18T18:35:58.628Z,0.25
2023-04-18T18:41:04.639Z,0.63
2023-04-18T18:46:09.040Z,1.00
2023-04-18T18:51:14.444Z,1.50
2023-04-18T18:56:18.373Z,1.80
2023-04-18T19:01:23.063Z,0.30
2023-04-18T19:06:32.173Z,0.77
2023-04-18T19:11:36.124Z,0.32
2023-04-18T19:16:40.234Z,1.42
2023-04-18T19:21:47.250Z,0.55
2023-04-18T19:26:51.182Z,0.65
2023-04-18T19:31:55.324Z,0.30
2023-04-18T19:37:01.455Z,0.17
2023-04-18T19:42:05.822Z,0.55
2023-04-18T19:47:09.858Z,0.40
2023-04-18T19:52:15.292Z,0.25
2023-04-18T19:57:19.374Z,0.00
2023-04-18T20:02:23.804Z,0.15
2023-04-18T20:07:32.776Z,0.30
2023-04-18T20:12:36.829Z,0.10
2023-04-18T20:17:40.823Z,0.50
2023-04-18T20:22:47.545Z,0.93
2023-04-18T20:27:53.170Z,6.47
2023-04-18T20:32:57.184Z,2.03
2023-04-18T20:38:02.765Z,2.38
2023-04-18T20:43:08.157Z,1.90
2023-04-18T20:48:12.143Z,0.63
2023-04-18T20:53:17.672Z,0.75
2023-04-18T20:58:21.847Z,1.23
2023-04-18T21:03:26.342Z,0.80
2023-04-18T21:08:31.768Z,1.83
2023-04-18T21:13:36.072Z,0.00
2023-04-18T21:18:39.976Z,1.45
2023-04-18T21:23:45.996Z,1.13
2023-04-18T21:28:54.308Z,1.95
2023-04-18T21:34:00.924Z,0.63
2023-04-18T21:39:06.244Z,0.00
2023-04-18T21:44:10.698Z,0.00
2023-04-18T21:49:16.067Z,0.38
2023-04-18T21:54:22.518Z,2.42
2023-04-18T21:59:29.395Z,3.03
2023-04-18T22:04:38.238Z,1.15
2023-04-18T22:09:44.892Z,1.80
2023-04-18T22:14:49.069Z,2.13
2023-04-18T22:19:53.629Z,0.98
2023-04-18T22:24:58.959Z,0.68
2023-04-18T22:30:03.035Z,0.88
2023-04-18T22:35:08.271Z,2.22
2023-04-18T22:40:15.803Z,0.43
2023-04-18T22:45:23.462Z,0.85
2023-04-18T22:50:27.562Z,0.95
2023-04-18T22:55:32.965Z,0.80
2023-04-18T23:00:37.495Z,0.88
2023-04-18T23:05:42.087Z,1.00
2023-04-18T23:10:47.456Z,0.73
2023-04-18T23:15:51.440Z,0.57
2023-04-18T23:20:55.425Z,0.30
2023-04-18T23:26:00.904Z,0.10
2023-04-18T23:31:08.629Z,0.77
2023-04-18T23:36:13.089Z,0.00
2023-04-18T23:41:18.367Z,0.13
2023-04-18T23:46:22.361Z,0.30
2023-04-18T23:51:26.908Z,0.60
2023-04-18T23:56:33.113Z,0.22
